Time;durP1;ratioP1;P1;durP2;ratioP2;P2;SDS_P1;SDS_P2;PMS_P1;PMS_P2;Temp;Humidity;BMP_temperature;BMP_pressure;BME280_temperature;BME280_humidity;BME280_pressure;Samples;Min_cycle;Max_cycle;Signal;HPM_P1;HPM_P2
2022/06/12 00:00:40;;;;;;;2.67;1.90;;;19.60;56.30;;;;;;5056580;28;20028;-76
2022/06/12 00:03:08;;;;;;;5.63;1.95;;;19.60;56.50;;;;;;5074439;28;20024;-75
2022/06/12 00:05:36;;;;;;;5.55;2.50;;;19.60;56.90;;;;;;5056495;28;20503;-75
2022/06/12 00:08:03;;;;;;;5.53;3.00;;;19.50;57.50;;;;;;5074386;28;20032;-75
2022/06/12 00:10:29;;;;;;;4.45;2.40;;;19.50;57.90;;;;;;5056467;28;20430;-75
2022/06/12 00:12:55;;;;;;;8.65;2.75;;;19.50;58.10;;;;;;5073998;28;20032;-75
2022/06/12 00:15:25;;;;;;;4.18;2.58;;;19.50;58.30;;;;;;5056078;28;20021;-75
2022/06/12 00:17:51;;;;;;;7.60;2.50;;;19.50;58.20;;;;;;5074227;28;20021;-75
2022/06/12 00:20:18;;;;;;;4.43;2.40;;;19.50;58.30;;;;;;5072825;28;20017;-75
2022/06/12 00:22:45;;;;;;;3.97;2.08;;;19.40;58.30;;;;;;5055958;28;20056;-75
2022/06/12 00:25:14;;;;;;;3.75;1.95;;;19.40;58.20;;;;;;5056085;28;20028;-75
2022/06/12 00:27:41;;;;;;;2.33;2.10;;;19.40;57.90;;;;;;5074230;28;20081;-76
2022/06/12 00:30:09;;;;;;;2.70;1.83;;;19.40;57.70;;;;;;5055875;28;20029;-75
2022/06/12 00:32:35;;;;;;;2.33;1.83;;;19.50;57.50;;;;;;5055814;28;20056;-75
2022/06/12 00:35:02;;;;;;;2.50;1.85;;;19.40;57.20;;;;;;5055894;28;20056;-76
2022/06/12 00:37:28;;;;;;;2.58;1.92;;;19.40;57.30;;;;;;5055727;28;20039;-75
2022/06/12 00:39:56;;;;;;;2.58;1.95;;;19.40;57.10;;;;;;5055738;28;20025;-75
2022/06/12 00:42:33;;;;;;;3.30;2.28;;;19.40;57.70;;;;;;5055686;28;20046;-75
2022/06/12 00:45:03;;;;;;;5.60;2.70;;;19.30;57.50;;;;;;5055847;28;20470;-74
2022/06/12 00:47:28;;;;;;;7.38;2.22;;;19.30;57.50;;;;;;5055487;28;20032;-76
2022/06/12 00:50:00;;;;;;;2.33;1.73;;;19.30;57.50;;;;;;5055650;28;20021;-75
2022/06/12 00:52:37;;;;;;;1.98;1.77;;;19.20;57.70;;;;;;5073683;28;20059;-74
2022/06/12 00:55:29;;;;;;;2.10;1.85;;;19.20;57.70;;;;;;5073449;28;20159;-75
2022/06/12 00:58:03;;;;;;;3.35;2.13;;;19.20;57.70;;;;;;5041843;28;20490;-76
2022/06/12 01:00:31;;;;;;;6.63;2.42;;;19.20;57.80;;;;;;5055181;28;20032;-76
2022/06/12 01:02:59;;;;;;;2.83;2.30;;;19.20;57.90;;;;;;5036512;28;20061;-75
2022/06/12 01:08:11;;;;;;;3.15;1.70;;;19.20;57.80;;;;;;5053196;28;20035;-75
2022/06/12 01:10:41;;;;;;;4.78;2.78;;;19.20;57.70;;;;;;5035126;28;20024;-75
2022/06/12 01:13:21;;;;;;;2.95;2.47;;;19.20;58.60;;;;;;5035181;28;20029;-75
2022/06/12 01:15:51;;;;;;;4.55;1.95;;;19.10;58.30;;;;;;5053096;28;20376;-75
2022/06/12 01:18:21;;;;;;;2.67;1.75;;;19.10;58.00;;;;;;5053439;28;20057;-76
2022/06/12 01:21:01;;;;;;;4.65;2.05;;;19.10;57.90;;;;;;5052740;28;20445;-75
2022/06/12 01:23:59;;;;;;;1.90;1.58;;;19.10;58.00;;;;;;5035031;28;20384;-75
2022/06/12 01:26:57;;;;;;;1.88;1.63;;;19.10;58.00;;;;;;5034729;28;20447;-75
2022/06/12 01:29:54;;;;;;;1.85;1.60;;;19.10;58.00;;;;;;5052657;28;20025;-75
2022/06/12 01:32:32;;;;;;;2.85;1.70;;;19.10;57.90;;;;;;5053002;28;20484;-75
2022/06/12 01:35:28;;;;;;;4.72;2.10;;;19.10;58.10;;;;;;5035124;28;20060;-76
2022/06/12 01:38:19;;;;;;;2.42;1.70;;;19.10;58.10;;;;;;5052868;28;20029;-75
2022/06/12 01:41:24;;;;;;;4.40;1.90;;;19.10;58.10;;;;;;5035000;28;20025;-76
2022/06/12 01:44:11;;;;;;;5.10;1.88;;;19.00;58.20;;;;;;5038989;28;20053;-75
2022/06/12 01:46:47;;;;;;;9.25;2.20;;;19.10;58.30;;;;;;5065864;28;20032;-75
2022/06/12 01:49:52;;;;;;;4.18;1.70;;;19.10;58.20;;;;;;5054860;28;20423;-75
2022/06/12 01:52:40;;;;;;;5.07;1.73;;;19.10;58.20;;;;;;5054843;28;20035;-75
2022/06/12 01:55:42;;;;;;;3.05;1.50;;;19.10;58.30;;;;;;5072511;28;20558;-75
2022/06/12 01:58:21;;;;;;;2.85;1.73;;;19.10;58.30;;;;;;5072504;28;20021;-75
2022/06/12 02:01:02;;;;;;;2.97;1.73;;;19.10;58.20;;;;;;5072786;28;20468;-75
2022/06/12 02:03:39;;;;;;;3.35;1.80;;;19.10;58.30;;;;;;5054581;28;20025;-76
2022/06/12 02:06:17;;;;;;;4.38;2.25;;;19.10;58.40;;;;;;5054679;28;20029;-77
2022/06/12 02:08:57;;;;;;;4.28;2.10;;;19.10;59.10;;;;;;5054610;28;20036;-75
2022/06/12 02:14:29;;;;;;;5.75;2.47;;;19.20;59.70;;;;;;5072625;28;20028;-75
2022/06/12 02:16:59;;;;;;;4.80;2.75;;;19.20;59.90;;;;;;5054543;28;20112;-75
2022/06/12 02:19:31;;;;;;;3.72;2.60;;;19.20;59.80;;;;;;5054607;28;20384;-75
2022/06/12 02:22:10;;;;;;;2.67;2.45;;;19.20;59.80;;;;;;5072688;28;20032;-76
2022/06/12 02:24:49;;;;;;;5.45;2.38;;;19.20;59.80;;;;;;5072177;28;20464;-76
2022/06/12 02:27:24;;;;;;;4.18;2.30;;;19.20;59.60;;;;;;5054687;28;20035;-75
2022/06/12 02:30:05;;;;;;;6.05;2.17;;;19.30;59.70;;;;;;5072420;28;20104;-75
2022/06/12 02:32:36;;;;;;;7.18;2.50;;;19.30;59.70;;;;;;5054432;28;20036;-75
2022/06/12 02:35:10;;;;;;;5.40;2.40;;;19.30;59.80;;;;;;5054363;28;20028;-75
2022/06/12 02:37:42;;;;;;;3.03;2.35;;;19.30;59.70;;;;;;5054503;28;20028;-74
2022/06/12 02:40:24;;;;;;;4.85;2.40;;;19.30;59.60;;;;;;5076012;28;20028;-75
2022/06/12 02:42:52;;;;;;;3.75;2.63;;;19.30;59.40;;;;;;5057880;28;20365;-75
2022/06/12 02:45:23;;;;;;;4.40;2.30;;;19.40;59.20;;;;;;5075757;28;20078;-75
2022/06/12 02:47:49;;;;;;;3.22;2.30;;;19.40;59.00;;;;;;5057767;28;20028;-75
2022/06/12 02:50:21;;;;;;;2.30;2.10;;;19.40;59.20;;;;;;5057653;28;20029;-75
2022/06/12 02:53:11;;;;;;;2.50;2.00;;;19.50;59.20;;;;;;5075621;28;20081;-75
2022/06/12 02:55:47;;;;;;;3.60;2.10;;;19.50;58.90;;;;;;5042953;28;20136;-75
2022/06/12 02:58:21;;;;;;;2.38;1.95;;;19.60;58.90;;;;;;5033272;28;20116;-75
2022/06/12 03:00:58;;;;;;;3.13;1.80;;;19.60;58.80;;;;;;5035313;28;20465;-75
2022/06/12 03:04:04;;;;;;;1.88;1.70;;;19.60;58.80;;;;;;5036468;28;20384;-75
2022/06/12 03:06:30;;;;;;;4.32;1.90;;;19.70;58.70;;;;;;5037519;28;20119;-75
2022/06/12 03:08:58;;;;;;;4.60;1.70;;;19.70;58.80;;;;;;5037418;28;20035;-75
2022/06/12 03:11:36;;;;;;;3.90;2.17;;;19.70;58.80;;;;;;5055395;28;20492;-75
2022/06/12 03:14:08;;;;;;;2.88;1.88;;;19.80;59.10;;;;;;5037392;28;20056;-75
2022/06/12 03:16:37;;;;;;;4.20;2.45;;;19.80;59.20;;;;;;5055242;28;20025;-78
2022/06/12 03:19:04;;;;;;;6.25;2.33;;;19.80;59.20;;;;;;5055376;28;20037;-75
2022/06/12 03:21:47;;;;;;;4.65;2.55;;;19.80;59.30;;;;;;5036908;28;20025;-75
2022/06/12 03:24:31;;;;;;;4.35;2.10;;;19.80;59.30;;;;;;5037134;28;20380;-75
2022/06/12 03:27:06;;;;;;;;;;;19.80;59.10;;;;;;5055473;28;20099;-75
2022/06/12 03:29:57;;;;;;;2.97;2.00;;;19.80;58.60;;;;;;5037367;28;20310;-75
2022/06/12 03:32:51;;;;;;;6.80;2.13;;;19.80;59.00;;;;;;5054595;28;20396;-76
2022/06/12 03:35:54;;;;;;;2.78;2.22;;;19.80;59.00;;;;;;5037011;28;20388;-75
2022/06/12 03:38:32;;;;;;;4.40;2.30;;;19.80;59.00;;;;;;5054780;28;20021;-75
2022/06/12 03:41:03;;;;;;;5.80;2.33;;;19.90;58.90;;;;;;5054656;28;20017;-76
2022/06/12 03:43:59;;;;;;;6.13;1.95;;;19.90;59.10;;;;;;5054217;28;20064;-75
2022/06/12 03:46:37;;;;;;;3.42;2.28;;;19.80;59.00;;;;;;5054943;28;20420;-75
2022/06/12 03:49:42;;;;;;;4.28;1.80;;;19.90;58.70;;;;;;5036630;28;20115;-75
2022/06/12 03:52:27;;;;;;;3.80;2.42;;;19.90;58.60;;;;;;5017250;28;20046;-75
2022/06/12 03:54:59;;;;;;;2.70;2.00;;;19.90;58.40;;;;;;5044426;28;20044;-76
2022/06/12 03:57:52;;;;;;;3.55;1.77;;;19.90;58.40;;;;;;5056551;28;20109;-75
2022/06/12 04:00:24;;;;;;;2.73;2.10;;;19.90;58.10;;;;;;5074073;28;20059;-76
2022/06/12 04:03:09;;;;;;;3.45;1.90;;;20.00;58.10;;;;;;5074406;28;20031;-75
2022/06/12 04:05:58;;;;;;;3.42;1.75;;;20.00;58.10;;;;;;5056624;28;20407;-75
2022/06/12 04:08:30;;;;;;;4.78;2.03;;;20.00;58.00;;;;;;5073707;28;20068;-75
2022/06/12 04:10:57;;;;;;;4.10;1.85;;;20.00;58.00;;;;;;5056434;28;20454;-74
2022/06/12 04:13:23;;;;;;;2.70;1.95;;;19.90;58.00;;;;;;5074229;28;20031;-76
2022/06/12 04:15:52;;;;;;;3.97;2.15;;;19.90;58.10;;;;;;5073842;28;20067;-75
2022/06/12 04:18:18;;;;;;;3.65;2.17;;;19.90;58.20;;;;;;5056297;28;20487;-75
2022/06/12 04:20:57;;;;;;;6.32;2.08;;;19.90;58.20;;;;;;5074334;28;20058;-74
2022/06/12 04:23:48;;;;;;;4.05;2.17;;;19.90;58.20;;;;;;5073996;28;20071;-75
2022/06/12 04:26:17;;;;;;;3.85;2.08;;;19.80;58.00;;;;;;5074209;28;20047;-76
2022/06/12 04:28:44;;;;;;;2.65;1.80;;;19.80;58.00;;;;;;5055972;28;20055;-75
2022/06/12 04:31:18;;;;;;;2.55;1.80;;;19.80;58.10;;;;;;5058455;28;20028;-75
2022/06/12 04:34:11;;;;;;;3.97;2.22;;;19.80;58.30;;;;;;5052746;28;20029;-75
2022/06/12 04:36:37;;;;;;;3.17;1.80;;;19.80;58.40;;;;;;5052438;28;20041;-76
2022/06/12 04:39:04;;;;;;;3.78;2.20;;;19.80;58.90;;;;;;5053393;28;20025;-75
2022/06/12 04:41:32;;;;;;;7.68;2.10;;;19.80;58.40;;;;;;5041018;28;20456;-75
2022/06/12 04:43:58;;;;;;;2.30;1.52;;;19.90;58.50;;;;;;5073697;28;20028;-75
2022/06/12 04:46:25;;;;;;;3.50;2.00;;;19.90;58.50;;;;;;5073215;28;20040;-75
2022/06/12 04:48:54;;;;;;;6.47;2.10;;;19.90;58.60;;;;;;5073545;28;20028;-75
2022/06/12 04:51:21;;;;;;;5.20;2.17;;;20.00;58.70;;;;;;5073362;28;20512;-76
2022/06/12 04:53:47;;;;;;;8.02;2.33;;;20.00;58.60;;;;;;5073365;28;20056;-75
2022/06/12 04:56:15;;;;;;;3.15;1.90;;;20.10;58.60;;;;;;5035667;28;20073;-75
2022/06/12 04:58:41;;;;;;;2.92;1.90;;;20.20;58.60;;;;;;5053379;28;20029;-75
2022/06/12 05:01:08;;;;;;;5.88;1.80;;;20.20;58.40;;;;;;5035408;28;20111;-76
2022/06/12 05:03:35;;;;;;;3.17;2.08;;;20.30;58.20;;;;;;5032965;28;20369;-75
2022/06/12 05:06:02;;;;;;;7.28;2.35;;;20.30;58.00;;;;;;5035316;28;20044;-75
2022/06/12 05:08:29;;;;;;;3.42;2.10;;;20.40;57.90;;;;;;5053447;28;20099;-76
2022/06/12 05:10:54;;;;;;;4.97;2.00;;;20.40;57.80;;;;;;5035543;28;20032;-76
2022/06/12 05:13:20;;;;;;;4.00;1.58;;;20.50;57.80;;;;;;5053389;28;20033;-75
2022/06/12 05:15:47;;;;;;;3.42;1.88;;;20.60;57.70;;;;;;5035452;28;20124;-75
2022/06/12 05:18:15;;;;;;;7.03;1.80;;;20.60;57.60;;;;;;5053351;28;20025;-75
2022/06/12 05:20:42;;;;;;;4.32;2.42;;;20.60;57.50;;;;;;5052993;28;20045;-76
2022/06/12 05:23:08;;;;;;;2.72;1.98;;;20.70;57.30;;;;;;5035283;28;20111;-76
2022/06/12 05:25:35;;;;;;;8.30;2.45;;;20.80;57.30;;;;;;5053227;28;20025;-76
2022/06/12 05:28:03;;;;;;;5.30;2.10;;;20.90;56.90;;;;;;5035102;28;20032;-75
2022/06/12 05:30:31;;;;;;;6.25;2.45;;;20.90;56.60;;;;;;5035224;28;20128;-76
2022/06/12 05:32:59;;;;;;;5.95;2.17;;;21.00;56.30;;;;;;5053025;28;20079;-75
2022/06/12 05:35:26;;;;;;;5.50;2.10;;;21.00;55.60;;;;;;5053122;28;20036;-75
2022/06/12 05:37:52;;;;;;;3.83;2.30;;;21.00;55.70;;;;;;5035620;28;20083;-76
2022/06/12 05:40:24;;;;;;;5.47;1.80;;;21.10;55.70;;;;;;5055378;28;20023;-76
2022/06/12 05:42:50;;;;;;;10.63;2.50;;;21.10;55.60;;;;;;5071928;28;20033;-77
2022/06/12 05:45:19;;;;;;;3.70;1.90;;;21.10;55.50;;;;;;5053440;28;20024;-76
2022/06/12 05:47:58;;;;;;;2.55;1.73;;;21.10;55.60;;;;;;5069813;28;20031;-76
2022/06/12 05:50:27;;;;;;;3.15;1.67;;;21.10;55.50;;;;;;5049861;28;20032;-77
2022/06/12 05:52:54;;;;;;;3.67;2.10;;;21.10;55.70;;;;;;5049262;28;20409;-76
2022/06/12 05:55:21;;;;;;;8.48;2.05;;;21.10;55.80;;;;;;5025648;28;20049;-76
2022/06/12 05:57:46;;;;;;;8.02;2.50;;;21.10;55.90;;;;;;5032358;28;20036;-76
2022/06/12 06:00:25;;;;;;;3.72;2.10;;;21.10;56.00;;;;;;5031676;28;20104;-77
2022/06/12 06:02:51;;;;;;;5.85;2.53;;;21.20;56.00;;;;;;5046870;28;20032;-76
2022/06/12 06:05:17;;;;;;;3.35;2.25;;;21.20;56.00;;;;;;5071930;28;20068;-79
2022/06/12 06:07:43;;;;;;;3.85;2.08;;;21.20;55.80;;;;;;5068344;28;20029;-77
2022/06/12 06:10:15;;;;;;;4.00;2.40;;;21.30;56.50;;;;;;5051537;28;20056;-76
2022/06/12 06:12:41;;;;;;;5.60;2.30;;;21.30;56.00;;;;;;5047391;28;20479;-76
2022/06/12 06:15:07;;;;;;;3.40;2.10;;;21.40;56.10;;;;;;5054023;28;20029;-77
2022/06/12 06:17:33;;;;;;;7.05;2.30;;;21.40;56.00;;;;;;5056678;28;20090;-76
2022/06/12 06:19:59;;;;;;;2.33;1.85;;;21.50;55.80;;;;;;5076435;28;20111;-77
2022/06/12 06:22:25;;;;;;;3.15;2.05;;;21.50;55.90;;;;;;5058406;28;20025;-77
2022/06/12 06:24:51;;;;;;;7.32;2.42;;;21.60;55.80;;;;;;5053167;28;20033;-76
2022/06/12 06:27:17;;;;;;;6.72;2.60;;;21.60;55.40;;;;;;5054752;28;20115;-76
2022/06/12 06:29:43;;;;;;;3.25;2.25;;;21.60;55.50;;;;;;5054336;28;20036;-76
2022/06/12 06:32:11;;;;;;;3.45;2.33;;;21.70;55.50;;;;;;5051532;28;20193;-76
2022/06/12 06:34:39;;;;;;;2.33;2.13;;;21.70;55.50;;;;;;5038120;28;20053;-76
2022/06/12 06:37:07;;;;;;;4.45;2.25;;;21.80;55.20;;;;;;5045263;28;20452;-78
2022/06/12 06:39:33;;;;;;;7.85;2.35;;;21.80;55.10;;;;;;5063716;28;20040;-77
2022/06/12 06:41:59;;;;;;;8.07;2.95;;;21.90;55.20;;;;;;5055989;28;20029;-77
2022/06/12 06:47:09;;;;;;;;;;;22.00;55.20;;;;;;5064793;28;20450;-76
2022/06/12 06:49:35;;;;;;;8.10;2.47;;;22.00;55.40;;;;;;5074741;28;20212;-77
2022/06/12 06:52:01;;;;;;;4.10;2.40;;;22.10;55.20;;;;;;5075928;28;20040;-76
2022/06/12 06:54:27;;;;;;;2.95;2.20;;;22.10;55.30;;;;;;5075491;28;20061;-77
2022/06/12 06:56:53;;;;;;;3.15;1.85;;;22.20;55.50;;;;;;5056795;28;20041;-77
2022/06/12 06:59:19;;;;;;;4.30;2.08;;;22.20;55.40;;;;;;5075114;28;20081;-77
2022/06/12 07:01:46;;;;;;;5.43;2.40;;;22.30;55.40;;;;;;5056836;28;20028;-77
2022/06/12 07:04:12;;;;;;;2.38;1.90;;;22.40;55.50;;;;;;5057677;28;20039;-77
2022/06/12 07:06:38;;;;;;;4.30;2.30;;;22.50;55.40;;;;;;5056709;28;20079;-77
2022/06/12 07:09:04;;;;;;;3.13;2.05;;;22.50;55.40;;;;;;5071885;28;20063;-77
2022/06/12 07:11:32;;;;;;;4.82;2.53;;;22.60;55.20;;;;;;5057433;28;20032;-77
2022/06/12 07:13:58;;;;;;;3.47;2.38;;;22.70;55.10;;;;;;5057583;28;20036;-77
2022/06/12 07:16:26;;;;;;;2.97;1.95;;;22.80;55.20;;;;;;5057362;28;20031;-76
2022/06/12 07:18:52;;;;;;;8.23;2.10;;;22.90;55.20;;;;;;5056210;28;20472;-76
2022/06/12 07:21:18;;;;;;;3.53;2.40;;;23.00;55.30;;;;;;5075293;28;20025;-76
2022/06/12 07:23:44;;;;;;;4.03;1.92;;;23.00;55.20;;;;;;5042647;28;20124;-77
2022/06/12 07:26:18;;;;;;;4.40;2.20;;;23.10;53.80;;;;;;5036307;28;20437;-77
2022/06/12 07:28:44;;;;;;;3.40;2.03;;;23.20;53.50;;;;;;5044645;28;20028;-76
2022/06/12 07:31:10;;;;;;;4.22;2.20;;;23.30;53.10;;;;;;5047687;28;20029;-77
2022/06/12 07:33:39;;;;;;;4.70;2.38;;;23.40;53.40;;;;;;5075128;28;20032;-78
2022/06/12 07:36:08;;;;;;;3.15;1.88;;;23.50;52.90;;;;;;5055246;28;20031;-77
2022/06/12 07:38:36;;;;;;;5.03;2.33;;;23.50;52.60;;;;;;5041015;28;20042;-76
2022/06/12 07:41:04;;;;;;;9.80;2.15;;;23.60;52.50;;;;;;5046586;28;20476;-77
2022/06/12 07:43:33;;;;;;;7.20;2.35;;;23.80;52.10;;;;;;5074483;28;20032;-77
2022/06/12 07:46:00;;;;;;;4.43;2.00;;;23.90;51.30;;;;;;5057717;28;20029;-77
2022/06/12 07:48:26;;;;;;;5.05;2.20;;;23.90;50.90;;;;;;5054721;28;20075;-77
2022/06/12 07:50:54;;;;;;;5.28;1.90;;;24.00;50.90;;;;;;5036870;28;20420;-76
2022/06/12 07:53:21;;;;;;;2.20;1.98;;;24.10;51.10;;;;;;5042012;28;20037;-79
2022/06/12 07:55:48;;;;;;;6.90;1.95;;;24.20;51.20;;;;;;5090403;28;20117;-77
2022/06/12 07:58:14;;;;;;;3.15;2.17;;;24.30;50.90;;;;;;5076716;28;20031;-77
2022/06/12 08:00:41;;;;;;;3.70;2.38;;;24.40;51.50;;;;;;5092168;28;20033;-77
2022/06/12 08:03:08;;;;;;;5.22;2.30;;;24.50;51.00;;;;;;5076639;28;20024;-77
2022/06/12 08:05:33;;;;;;;2.85;1.70;;;24.50;50.30;;;;;;5076351;28;20056;-77
2022/06/12 08:07:59;;;;;;;7.85;2.67;;;24.60;50.40;;;;;;5094688;28;20086;-77
2022/06/12 08:10:26;;;;;;;4.78;2.40;;;24.70;50.50;;;;;;5095066;28;20027;-79
2022/06/12 08:12:54;;;;;;;8.77;2.20;;;24.80;49.50;;;;;;5109211;28;20036;-77
2022/06/12 08:15:27;;;;;;;5.32;2.60;;;24.80;49.60;;;;;;5073870;28;20479;-77
2022/06/12 08:17:56;;;;;;;4.88;2.55;;;24.90;49.80;;;;;;5053860;28;20412;-77
2022/06/12 08:20:25;;;;;;;4.60;2.17;;;25.00;49.40;;;;;;5054202;28;20381;-77
2022/06/12 08:23:26;;;;;;;5.30;2.20;;;25.00;49.40;;;;;;5055012;28;20033;-77
2022/06/12 08:26:27;;;;;;;5.15;2.60;;;25.10;49.30;;;;;;5039343;28;20032;-77
2022/06/12 08:29:02;;;;;;;4.18;1.90;;;25.20;49.40;;;;;;4995317;28;20042;-77
2022/06/12 08:31:37;;;;;;;7.00;3.47;;;25.30;48.80;;;;;;4985296;28;20034;-77
2022/06/12 08:34:08;;;;;;;2.92;1.90;;;25.30;48.60;;;;;;4992063;28;20061;-77
2022/06/12 08:36:35;;;;;;;3.60;2.15;;;25.30;48.10;;;;;;4973589;28;20518;-77
2022/06/12 08:39:01;;;;;;;3.45;2.00;;;25.50;47.60;;;;;;4988653;28;20576;-77
2022/06/12 08:41:48;;;;;;;2.85;2.20;;;25.50;47.70;;;;;;4995143;28;20030;-78
2022/06/12 08:44:20;;;;;;;6.63;2.45;;;25.50;47.80;;;;;;5009208;28;20042;-76
2022/06/12 08:46:56;;;;;;;3.22;2.17;;;25.60;47.00;;;;;;4970115;28;20382;-77
2022/06/12 08:49:50;;;;;;;7.93;2.20;;;25.60;46.70;;;;;;4992086;28;20129;-76
2022/06/12 08:52:26;;;;;;;4.97;2.60;;;25.70;47.30;;;;;;4970836;28;20046;-75
2022/06/12 08:55:22;;;;;;;3.40;2.20;;;25.80;46.60;;;;;;4967370;28;20455;-75
2022/06/12 08:58:10;;;;;;;2.42;1.80;;;25.90;46.80;;;;;;4874509;28;20485;-75
2022/06/12 09:00:38;;;;;;;5.72;2.67;;;26.00;47.20;;;;;;4972309;28;20031;-75
2022/06/12 09:03:08;;;;;;;3.30;2.17;;;26.00;46.60;;;;;;4956592;28;20035;-76
2022/06/12 09:05:57;;;;;;;5.15;2.90;;;26.10;46.40;;;;;;5028571;28;20036;-75
2022/06/12 09:08:46;;;;;;;5.85;2.30;;;26.20;46.40;;;;;;5055507;28;20162;-75
2022/06/12 09:11:40;;;;;;;7.82;2.72;;;26.20;46.40;;;;;;5055148;28;20029;-76
2022/06/12 09:14:30;;;;;;;2.85;2.30;;;26.30;46.40;;;;;;5073252;28;20371;-76
2022/06/12 09:17:04;;;;;;;5.32;2.20;;;26.40;46.30;;;;;;5071410;28;20021;-76
2022/06/12 09:19:45;;;;;;;3.50;2.00;;;26.40;46.30;;;;;;5047921;28;20029;-75
2022/06/12 09:22:35;;;;;;;4.60;2.40;;;26.50;46.00;;;;;;5045774;28;20093;-76
2022/06/12 09:25:22;;;;;;;5.50;2.28;;;26.60;45.20;;;;;;5055138;28;20045;-76
2022/06/12 09:28:11;;;;;;;3.55;1.90;;;26.60;45.50;;;;;;5072794;28;20031;-76
2022/06/12 09:31:03;;;;;;;7.22;2.08;;;26.70;44.80;;;;;;5004612;28;20472;-75
2022/06/12 09:34:13;;;;;;;3.50;1.80;;;26.80;45.00;;;;;;5053651;28;20032;-76
2022/06/12 09:36:56;;;;;;;2.35;2.10;;;26.90;45.00;;;;;;5032976;28;20037;-75
2022/06/12 09:39:36;;;;;;;1.70;1.60;;;27.00;44.20;;;;;;5033129;28;20079;-75
2022/06/12 09:42:17;;;;;;;1.95;1.60;;;27.00;43.40;;;;;;5015272;28;20030;-75
2022/06/12 09:44:59;;;;;;;3.42;1.70;;;27.10;43.50;;;;;;5028215;28;20115;-76
2022/06/12 09:47:45;;;;;;;3.22;1.80;;;27.10;43.50;;;;;;5053408;28;20464;-75
2022/06/12 09:50:26;;;;;;;3.30;1.88;;;27.20;42.80;;;;;;5076932;28;20062;-76
2022/06/12 09:53:39;;;;;;;4.22;1.60;;;27.20;42.80;;;;;;5077202;28;20036;-75
2022/06/12 09:56:14;;;;;;;3.03;1.60;;;27.30;43.00;;;;;;5058433;28;20056;-75
2022/06/12 09:59:06;;;;;;;2.80;1.75;;;27.30;42.20;;;;;;5058057;28;20063;-74
2022/06/12 10:01:40;;;;;;;2.72;1.50;;;27.40;42.40;;;;;;5045665;28;20040;-75
2022/06/12 10:04:21;;;;;;;3.30;1.70;;;27.50;42.10;;;;;;5076571;28;20028;-77
2022/06/12 10:06:52;;;;;;;1.45;1.25;;;27.50;41.30;;;;;;5076069;28;20033;-76
2022/06/12 10:09:30;;;;;;;3.10;1.73;;;27.50;41.80;;;;;;5056865;28;20361;-74
2022/06/12 10:12:05;;;;;;;2.35;1.55;;;27.70;41.30;;;;;;5058529;28;20039;-75
2022/06/12 10:14:39;;;;;;;2.85;1.52;;;27.70;40.90;;;;;;5076765;28;20107;-75
2022/06/12 10:17:24;;;;;;;2.35;1.13;;;27.80;40.80;;;;;;5076428;28;20027;-75
2022/06/12 10:20:14;;;;;;;4.75;1.98;;;27.80;40.50;;;;;;5058422;28;20119;-75
2022/06/12 10:22:46;;;;;;;2.42;1.60;;;27.90;40.50;;;;;;5071332;28;20041;-75
2022/06/12 10:25:23;;;;;;;1.52;1.42;;;28.00;39.80;;;;;;5076266;28;20035;-76
2022/06/12 10:27:53;;;;;;;6.05;1.70;;;28.00;39.80;;;;;;5076460;28;20028;-75
2022/06/12 10:30:43;;;;;;;2.70;1.48;;;28.00;39.40;;;;;;5058333;28;20032;-74
2022/06/12 10:33:22;;;;;;;2.00;1.50;;;28.10;40.20;;;;;;5012875;28;20143;-75
2022/06/12 10:35:52;;;;;;;5.50;1.88;;;28.20;39.50;;;;;;5045022;28;20468;-75
2022/06/12 10:38:20;;;;;;;1.80;1.42;;;28.20;39.60;;;;;;5036526;28;20028;-75
2022/06/12 10:41:08;;;;;;;2.45;1.27;;;28.30;39.70;;;;;;5037642;28;20420;-76
2022/06/12 10:43:38;;;;;;;2.42;1.65;;;28.40;39.20;;;;;;5036313;28;20043;-76
2022/06/12 10:46:18;;;;;;;1.75;1.30;;;28.50;38.00;;;;;;5055845;28;20465;-75
2022/06/12 10:49:01;;;;;;;2.92;1.23;;;28.50;38.50;;;;;;5040862;28;20420;-75
2022/06/12 10:51:38;;;;;;;2.53;1.50;;;28.60;38.30;;;;;;5036886;28;20112;-76
2022/06/12 10:54:15;;;;;;;2.78;1.52;;;28.60;37.00;;;;;;5023330;28;20029;-76
2022/06/12 10:56:50;;;;;;;1.98;1.60;;;28.60;36.50;;;;;;5043450;28;20037;-75
2022/06/12 10:59:27;;;;;;;8.20;1.85;;;28.60;36.00;;;;;;5065413;28;20082;-77
2022/06/12 11:02:12;;;;;;;3.03;1.40;;;28.60;36.00;;;;;;5039789;28;20036;-77
2022/06/12 11:05:07;;;;;;;2.70;1.35;;;28.70;36.30;;;;;;5037511;28;20380;-79
2022/06/12 11:07:38;;;;;;;2.95;1.67;;;28.70;36.80;;;;;;5020789;28;20484;-77
2022/06/12 11:10:16;;;;;;;2.22;1.60;;;28.80;35.40;;;;;;5040725;28;20358;-77
2022/06/12 11:13:00;;;;;;;1.88;1.33;;;28.80;34.50;;;;;;5063539;28;20481;-77
2022/06/12 11:15:46;;;;;;;4.13;1.45;;;28.90;35.60;;;;;;5035956;28;20032;-77
2022/06/12 11:18:50;;;;;;;1.40;1.30;;;28.90;34.30;;;;;;5041784;28;20021;-77
2022/06/12 11:21:19;;;;;;;;;;;28.90;34.30;;;;;;5039134;28;20536;-77
2022/06/12 11:24:04;;;;;;;1.83;1.20;;;29.00;36.00;;;;;;5044195;28;19959;-76
2022/06/12 11:26:55;;;;;;;3.42;1.30;;;29.10;33.80;;;;;;5037166;28;20025;-77
2022/06/12 11:29:53;;;;;;;2.00;1.20;;;29.10;33.20;;;;;;5020310;28;20022;-78
2022/06/12 11:32:45;;;;;;;1.80;1.15;;;29.10;32.30;;;;;;4990721;28;20056;-77
2022/06/12 11:35:42;;;;;;;4.38;1.40;;;29.20;33.30;;;;;;5002454;28;20039;-78
2022/06/12 11:38:32;;;;;;;3.38;1.40;;;29.20;32.60;;;;;;5033915;28;20386;-77
2022/06/12 11:41:30;;;;;;;2.03;1.45;;;29.30;32.30;;;;;;5033771;28;20112;-77
2022/06/12 11:44:21;;;;;;;1.20;1.10;;;29.30;32.20;;;;;;5017264;28;20029;-77
2022/06/12 11:47:08;;;;;;;5.43;1.77;;;29.40;32.30;;;;;;5062045;28;20032;-77
2022/06/12 11:49:52;;;;;;;5.40;1.52;;;29.40;32.50;;;;;;5048727;28;20078;-77
2022/06/12 11:52:52;;;;;;;2.75;1.35;;;29.50;32.00;;;;;;5074776;28;20035;-77
2022/06/12 11:55:29;;;;;;;8.65;1.85;;;29.50;32.10;;;;;;5074982;28;20049;-77
2022/06/12 11:58:09;;;;;;;3.58;1.38;;;29.60;31.60;;;;;;5076753;28;20024;-77
2022/06/12 12:00:41;;;;;;;2.78;1.70;;;29.60;31.10;;;;;;5089850;28;20024;-77
2022/06/12 12:03:28;;;;;;;2.67;1.35;;;29.60;31.10;;;;;;5075997;28;20038;-78
2022/06/12 12:06:15;;;;;;;5.45;1.55;;;29.70;31.80;;;;;;5094134;28;20032;-75
2022/06/12 12:09:12;;;;;;;1.88;1.40;;;29.70;31.40;;;;;;5076374;28;20071;-76
2022/06/12 12:11:51;;;;;;;3.83;1.38;;;29.70;30.90;;;;;;5074276;28;20035;-76
2022/06/12 12:14:27;;;;;;;2.63;1.52;;;29.70;30.20;;;;;;5076444;28;20506;-76
2022/06/12 12:17:00;;;;;;;1.77;1.25;;;29.80;30.90;;;;;;5094780;28;20495;-75
2022/06/12 12:19:46;;;;;;;1.38;1.10;;;29.80;30.70;;;;;;5076315;28;20103;-76
2022/06/12 12:22:49;;;;;;;1.55;1.40;;;29.90;31.50;;;;;;5091802;28;20042;-77
2022/06/12 12:25:49;;;;;;;3.88;1.30;;;29.90;30.90;;;;;;5093845;28;20024;-76
2022/06/12 12:28:30;;;;;;;2.75;1.30;;;30.00;30.50;;;;;;5076034;28;20028;-76
2022/06/12 12:31:10;;;;;;;3.00;1.58;;;30.00;29.90;;;;;;5064867;28;20028;-77
2022/06/12 12:33:38;;;;;;;3.00;1.00;;;30.10;30.30;;;;;;5073910;28;20020;-76
2022/06/12 12:41:51;;;;;;;3.83;1.30;;;30.10;29.30;;;;;;5059657;28;20038;-76
2022/06/12 12:44:38;;;;;;;8.43;1.75;;;30.20;29.70;;;;;;5075847;28;20185;-75
2022/06/12 12:47:20;;;;;;;1.85;1.50;;;30.20;29.90;;;;;;5071383;28;20032;-75
2022/06/12 12:49:47;;;;;;;3.15;1.60;;;30.20;29.90;;;;;;5094119;28;20020;-76
2022/06/12 12:52:16;;;;;;;4.80;1.40;;;30.30;29.80;;;;;;5093658;28;20034;-76
2022/06/12 12:54:46;;;;;;;2.95;1.33;;;30.30;29.40;;;;;;5075251;28;20048;-77
2022/06/12 12:57:15;;;;;;;2.78;1.20;;;30.40;29.50;;;;;;5093826;28;20467;-76
2022/06/12 12:59:42;;;;;;;4.38;1.70;;;30.40;29.30;;;;;;5074095;28;20028;-76
2022/06/12 13:02:21;;;;;;;1.38;1.15;;;30.40;30.00;;;;;;5075152;28;20043;-77
2022/06/12 13:04:47;;;;;;;1.30;1.02;;;30.50;30.00;;;;;;5075553;28;20028;-76
2022/06/12 13:07:36;;;;;;;2.20;1.08;;;30.50;29.40;;;;;;5075487;28;20025;-76
2022/06/12 13:10:23;;;;;;;5.20;1.63;;;30.50;30.00;;;;;;5060582;28;20552;-75
2022/06/12 13:13:25;;;;;;;2.00;1.52;;;30.60;29.50;;;;;;5093316;28;20058;-76
2022/06/12 13:15:54;;;;;;;2.15;1.52;;;30.60;29.60;;;;;;5093538;28;20031;-75
2022/06/12 13:18:41;;;;;;;3.58;1.50;;;30.70;29.10;;;;;;5075285;28;20027;-76
2022/06/12 13:21:23;;;;;;;1.90;1.20;;;30.70;29.50;;;;;;5077454;28;20063;-75
2022/06/12 13:24:09;;;;;;;1.75;1.10;;;30.80;29.30;;;;;;5049296;28;20041;-74
2022/06/12 13:26:37;;;;;;;1.42;1.08;;;31.10;29.90;;;;;;5073536;28;20379;-75
2022/06/12 13:29:05;;;;;;;1.27;1.15;;;31.50;29.10;;;;;;5090557;28;20418;-75
2022/06/12 13:31:34;;;;;;;3.92;1.23;;;32.00;29.00;;;;;;5090548;28;20036;-75
2022/06/12 13:34:03;;;;;;;1.63;1.40;;;32.50;28.10;;;;;;5074610;28;20031;-75
2022/06/12 13:36:35;;;;;;;1.92;1.38;;;33.00;27.60;;;;;;5068913;28;20032;-75
2022/06/12 13:39:17;;;;;;;2.08;1.40;;;33.50;27.60;;;;;;5076624;28;20043;-75
2022/06/12 13:41:45;;;;;;;4.18;1.40;;;34.10;27.60;;;;;;5061548;28;20028;-76
2022/06/12 13:44:34;;;;;;;3.65;1.55;;;34.70;26.20;;;;;;5063373;28;20043;-75
2022/06/12 13:47:30;;;;;;;4.18;1.40;;;35.30;26.70;;;;;;5050773;28;20079;-76